Time;durP1;ratioP1;P1;durP2;ratioP2;P2;SDS_P1;SDS_P2;PMS_P1;PMS_P2;Temp;Humidity;BMP_temperature;BMP_pressure;BME280_temperature;BME280_humidity;BME280_pressure;Samples;Min_cycle;Max_cycle;Signal;HPM_P1;HPM_P2
2022/01/13 00:00:07;;;;;;;21.20;11.23;;;1.30;99.90;;;;;;5097330;28;20059;-83
2022/01/13 00:02:36;;;;;;;20.03;10.07;;;1.30;99.90;;;;;;5096477;28;20118;-83
2022/01/13 00:05:01;;;;;;;20.70;10.73;;;1.20;99.90;;;;;;5096844;28;20063;-82
2022/01/13 00:07:27;;;;;;;21.00;10.03;;;1.20;99.90;;;;;;5114576;28;20038;-83
2022/01/13 00:09:53;;;;;;;21.13;10.37;;;1.20;99.90;;;;;;5115042;28;20032;-83
2022/01/13 00:12:20;;;;;;;21.70;10.70;;;1.20;99.90;;;;;;5096506;28;20023;-82
2022/01/13 00:15:39;;;;;;;20.33;10.90;;;1.20;99.90;;;;;;5097003;28;20035;-83
2022/01/13 00:20:38;;;;;;;21.13;10.73;;;1.10;99.90;;;;;;5115236;28;20031;-83
2022/01/13 00:25:33;;;;;;;20.37;10.93;;;1.10;99.90;;;;;;5114050;28;20056;-82
2022/01/13 00:28:02;;;;;;;22.03;10.73;;;1.10;99.90;;;;;;5096875;28;20498;-83
2022/01/13 00:30:27;;;;;;;20.07;10.50;;;1.10;99.90;;;;;;5096273;28;20031;-83
2022/01/13 00:32:53;;;;;;;21.00;10.83;;;1.00;99.90;;;;;;5096222;28;20035;-83
2022/01/13 00:35:19;;;;;;;22.43;11.30;;;1.10;99.90;;;;;;5096354;28;20422;-83
2022/01/13 00:37:45;;;;;;;22.60;10.57;;;1.00;99.90;;;;;;5096434;28;20061;-82
2022/01/13 00:40:11;;;;;;;22.90;11.23;;;1.00;99.90;;;;;;5096493;28;20023;-83
2022/01/13 00:42:37;;;;;;;24.97;11.70;;;1.00;99.90;;;;;;5096516;28;20031;-82
2022/01/13 00:45:05;;;;;;;21.83;11.53;;;0.90;99.90;;;;;;5096430;28;20119;-82
2022/01/13 00:47:33;;;;;;;18.17;10.77;;;0.90;99.90;;;;;;5096067;28;20279;-83
2022/01/13 00:49:59;;;;;;;22.17;11.10;;;0.80;99.90;;;;;;5096521;28;20475;-83
2022/01/13 00:52:27;;;;;;;22.20;11.23;;;0.80;99.90;;;;;;5113954;28;20110;-82
2022/01/13 00:54:53;;;;;;;26.17;10.53;;;0.80;99.90;;;;;;5096591;28;20024;-83
2022/01/13 00:57:19;;;;;;;23.93;11.33;;;0.80;99.90;;;;;;5096151;28;20028;-83
2022/01/13 00:59:44;;;;;;;24.50;11.67;;;0.70;99.90;;;;;;5096632;28;20043;-83
2022/01/13 01:02:10;;;;;;;23.47;10.90;;;0.70;99.90;;;;;;5096288;28;20051;-83
2022/01/13 01:04:36;;;;;;;22.93;10.53;;;0.70;99.90;;;;;;5095870;28;20443;-83
2022/01/13 01:07:02;;;;;;;20.63;11.00;;;0.80;99.90;;;;;;5096386;28;20027;-82
2022/01/13 01:09:39;;;;;;;21.87;10.83;;;0.70;99.90;;;;;;5095992;28;20430;-83
2022/01/13 01:12:09;;;;;;;24.80;12.60;;;0.80;99.90;;;;;;5096314;28;20058;-83
2022/01/13 01:14:39;;;;;;;21.03;10.50;;;0.80;99.90;;;;;;5113696;28;20039;-83
2022/01/13 01:17:05;;;;;;;21.13;11.07;;;0.80;99.90;;;;;;5096325;28;20095;-82
2022/01/13 01:19:31;;;;;;;21.93;11.20;;;0.80;99.90;;;;;;5113460;28;20547;-82
2022/01/13 01:24:57;;;;;;;22.97;11.27;;;0.80;99.90;;;;;;5113731;28;20059;-83
2022/01/13 01:27:27;;;;;;;24.65;11.48;;;0.80;99.90;;;;;;5095620;28;20123;-83
2022/01/13 01:29:58;;;;;;;23.47;11.77;;;0.80;99.90;;;;;;5096387;28;20024;-83
2022/01/13 01:32:24;;;;;;;19.70;10.73;;;0.80;99.90;;;;;;5095759;28;20028;-83
2022/01/13 01:37:17;;;;;;;20.43;10.63;;;0.80;99.90;;;;;;5113481;28;20031;-83
2022/01/13 01:39:44;;;;;;;24.77;11.17;;;0.80;99.90;;;;;;5096462;28;20020;-83
2022/01/13 01:42:10;;;;;;;21.93;10.87;;;0.80;99.90;;;;;;5113992;28;20066;-83
2022/01/13 01:44:41;;;;;;;23.43;11.80;;;0.80;99.90;;;;;;5117076;28;20082;-82
2022/01/13 01:47:10;;;;;;;25.67;12.37;;;0.70;99.90;;;;;;5100385;28;20028;-83
2022/01/13 01:49:40;;;;;;;22.77;11.30;;;0.80;99.90;;;;;;5099372;28;20023;-83
2022/01/13 01:52:08;;;;;;;19.77;11.00;;;0.70;99.90;;;;;;5117712;28;20062;-83
2022/01/13 01:54:34;;;;;;;19.30;10.17;;;0.80;99.90;;;;;;5099112;28;20028;-82
2022/01/13 01:57:00;;;;;;;25.37;11.60;;;0.70;99.90;;;;;;5099392;28;20380;-81
2022/01/13 01:59:30;;;;;;;23.40;10.60;;;0.80;99.90;;;;;;5117059;28;20147;-83
2022/01/13 02:01:57;;;;;;;25.53;10.83;;;0.70;99.90;;;;;;5099802;28;20421;-82
2022/01/13 02:04:25;;;;;;;23.97;11.43;;;0.70;99.90;;;;;;5098898;28;20032;-82
2022/01/13 02:06:52;;;;;;;21.13;11.13;;;0.70;99.90;;;;;;5117385;28;20035;-83
2022/01/13 02:09:19;;;;;;;22.00;10.70;;;0.60;99.90;;;;;;5098830;28;20118;-83
2022/01/13 02:11:48;;;;;;;22.80;11.20;;;0.60;99.90;;;;;;5099527;28;20114;-83
2022/01/13 02:16:54;;;;;;;26.13;11.97;;;0.50;99.90;;;;;;5117048;28;20023;-83
2022/01/13 02:19:23;;;;;;;21.10;11.60;;;0.50;99.90;;;;;;5098418;28;20024;-83
2022/01/13 02:21:48;;;;;;;24.37;12.37;;;0.50;99.90;;;;;;5098910;28;20034;-83
2022/01/13 02:24:14;;;;;;;23.47;12.43;;;0.50;99.90;;;;;;5098508;28;20146;-83
2022/01/13 02:26:40;;;;;;;25.17;11.30;;;0.40;99.90;;;;;;5098557;28;20074;-83
2022/01/13 02:29:05;;;;;;;24.80;12.77;;;0.40;99.90;;;;;;5116881;28;20028;-83
2022/01/13 02:31:31;;;;;;;20.83;11.20;;;0.40;99.90;;;;;;5098384;28;20100;-83
2022/01/13 02:33:57;;;;;;;20.83;11.20;;;0.40;99.90;;;;;;5099254;28;20034;-83
2022/01/13 02:36:23;;;;;;;22.73;12.20;;;0.40;99.90;;;;;;5098413;28;20020;-83
2022/01/13 02:38:50;;;;;;;25.17;12.07;;;0.40;99.90;;;;;;5116875;28;20028;-83
2022/01/13 02:41:16;;;;;;;23.20;11.37;;;0.40;99.90;;;;;;5098867;28;20082;-83
2022/01/13 02:43:44;;;;;;;23.23;11.63;;;0.40;99.90;;;;;;5098235;28;20035;-83
2022/01/13 02:46:54;;;;;;;21.63;11.50;;;0.40;99.90;;;;;;5098677;28;20053;-83
2022/01/13 02:49:20;;;;;;;22.90;11.47;;;0.30;99.90;;;;;;5116037;28;20472;-83
2022/01/13 02:51:48;;;;;;;23.97;12.43;;;0.30;99.90;;;;;;5098700;28;20030;-83
2022/01/13 02:54:14;;;;;;;25.73;11.67;;;0.30;99.90;;;;;;5097796;28;20028;-82
2022/01/13 02:56:41;;;;;;;21.70;10.97;;;0.30;99.90;;;;;;5116086;28;20066;-83
2022/01/13 02:59:07;;;;;;;25.40;12.73;;;0.20;99.90;;;;;;5098613;28;20526;-83
2022/01/13 03:01:34;;;;;;;25.23;12.70;;;0.20;99.90;;;;;;5098165;28;20023;-83
2022/01/13 03:04:04;;;;;;;24.73;11.83;;;0.20;99.90;;;;;;5116229;28;20090;-82
2022/01/13 03:06:35;;;;;;;21.53;11.57;;;0.20;99.90;;;;;;5115831;28;20032;-82
2022/01/13 03:09:13;;;;;;;22.57;11.60;;;0.20;99.90;;;;;;5098361;28;20031;-82
2022/01/13 03:11:38;;;;;;;21.97;11.13;;;0.30;99.90;;;;;;5097601;28;20472;-83
2022/01/13 03:14:06;;;;;;;24.80;12.73;;;0.20;99.90;;;;;;5098014;28;20023;-83
2022/01/13 03:16:31;;;;;;;23.10;12.37;;;0.20;99.90;;;;;;5097597;28;20457;-83
2022/01/13 03:18:57;;;;;;;22.20;11.77;;;0.20;99.90;;;;;;5115924;28;20034;-82
2022/01/13 03:21:23;;;;;;;23.80;12.77;;;0.20;99.90;;;;;;5097239;28;20031;-82
2022/01/13 03:23:50;;;;;;;24.37;11.63;;;0.20;99.90;;;;;;5097883;28;20050;-82
2022/01/13 03:26:16;;;;;;;22.70;12.63;;;0.30;99.90;;;;;;5116269;28;20137;-83
2022/01/13 03:28:51;;;;;;;23.13;12.07;;;0.20;99.90;;;;;;5097134;28;20119;-82
2022/01/13 03:31:19;;;;;;;22.97;11.97;;;0.20;99.90;;;;;;5115920;28;20020;-83
2022/01/13 03:33:44;;;;;;;22.53;12.10;;;0.20;99.90;;;;;;5097274;28;20127;-83
2022/01/13 03:36:10;;;;;;;24.10;12.27;;;0.20;99.90;;;;;;5115509;28;20436;-83
2022/01/13 03:38:36;;;;;;;23.27;11.63;;;0.20;99.90;;;;;;5115146;28;20072;-83
2022/01/13 03:41:03;;;;;;;24.03;12.70;;;0.10;99.90;;;;;;5097267;28;20023;-83
2022/01/13 03:43:29;;;;;;;21.80;11.43;;;0.10;99.90;;;;;;5097091;28;20476;-83
2022/01/13 03:45:54;;;;;;;22.10;11.90;;;0.10;99.90;;;;;;5097656;28;20026;-83
2022/01/13 03:48:20;;;;;;;22.77;11.80;;;0.10;99.90;;;;;;5097764;28;20028;-82
2022/01/13 03:50:46;;;;;;;23.50;11.83;;;0.20;99.90;;;;;;5115072;28;20023;-84
2022/01/13 03:53:26;;;;;;;26.57;12.67;;;0.20;99.90;;;;;;5114966;28;20058;-83
2022/01/13 03:56:13;;;;;;;23.80;11.87;;;0.20;99.90;;;;;;5115286;28;20027;-83
2022/01/13 03:59:01;;;;;;;25.60;12.13;;;0.10;99.90;;;;;;5114657;28;20030;-83
2022/01/13 04:02:07;;;;;;;22.77;11.90;;;0.10;99.90;;;;;;5096674;28;20061;-83
2022/01/13 04:04:35;;;;;;;23.83;12.10;;;0.10;99.90;;;;;;5114252;28;20036;-83
2022/01/13 04:07:07;;;;;;;25.27;12.00;;;0.00;99.90;;;;;;5096064;28;20026;-83
2022/01/13 04:09:32;;;;;;;23.73;11.75;;;0.00;99.90;;;;;;5096730;28;20037;-83
2022/01/13 04:12:03;;;;;;;22.50;11.80;;;0.00;99.90;;;;;;5115187;28;20020;-83
2022/01/13 04:14:46;;;;;;;23.37;12.17;;;0.00;99.90;;;;;;5114794;28;20028;-82
2022/01/13 04:17:22;;;;;;;26.63;12.73;;;0.00;99.90;;;;;;5115143;28;20019;-83
2022/01/13 04:19:49;;;;;;;27.67;12.77;;;-0.10;99.90;;;;;;5114697;28;20027;-83
2022/01/13 04:22:16;;;;;;;24.27;12.30;;;-0.10;99.90;;;;;;5096621;28;20026;-83
2022/01/13 04:24:47;;;;;;;26.57;11.73;;;0.00;99.90;;;;;;5095887;28;20075;-83
2022/01/13 04:27:22;;;;;;;24.40;11.30;;;-0.10;99.90;;;;;;5096609;28;20035;-83
2022/01/13 04:29:59;;;;;;;26.40;12.00;;;-0.10;99.90;;;;;;5114442;28;20167;-82
2022/01/13 04:32:25;;;;;;;23.03;12.03;;;-0.10;99.90;;;;;;5096309;28;20106;-82
2022/01/13 04:34:50;;;;;;;22.40;11.97;;;-0.20;99.90;;;;;;5096824;28;20069;-82
2022/01/13 04:37:16;;;;;;;25.60;12.57;;;-0.10;99.90;;;;;;5096976;28;20032;-82
2022/01/13 04:39:42;;;;;;;24.90;12.33;;;-0.10;99.90;;;;;;5114486;28;20068;-82
2022/01/13 04:42:10;;;;;;;20.97;12.20;;;-0.10;99.90;;;;;;5096912;28;20027;-82
2022/01/13 04:44:35;;;;;;;28.37;12.53;;;-0.10;99.90;;;;;;5096074;28;20023;-82
2022/01/13 04:47:07;;;;;;;25.93;12.40;;;-0.10;99.90;;;;;;5096503;28;20035;-82
2022/01/13 04:49:33;;;;;;;25.85;12.13;;;-0.20;99.90;;;;;;5096139;28;20047;-82
2022/01/13 04:51:59;;;;;;;24.70;12.57;;;-0.10;99.90;;;;;;5096387;28;20055;-82
2022/01/13 04:54:24;;;;;;;24.10;12.33;;;-0.10;99.90;;;;;;5114649;28;20031;-82
2022/01/13 04:59:17;;;;;;;23.67;12.23;;;-0.10;99.90;;;;;;5114380;28;20024;-82
2022/01/13 05:01:42;;;;;;;23.37;12.63;;;-0.20;99.90;;;;;;5096130;28;20426;-82
2022/01/13 05:04:08;;;;;;;26.27;12.67;;;-0.20;99.90;;;;;;5114494;28;20027;-83
2022/01/13 05:06:35;;;;;;;23.23;12.63;;;-0.10;99.90;;;;;;5114164;28;20116;-82
2022/01/13 05:09:01;;;;;;;21.90;11.27;;;-0.20;99.90;;;;;;5096436;28;20416;-83
2022/01/13 05:11:27;;;;;;;23.93;11.67;;;-0.20;99.90;;;;;;5095953;28;20024;-83
2022/01/13 05:13:53;;;;;;;25.97;12.20;;;-0.10;99.90;;;;;;5114140;28;20039;-83
2022/01/13 05:16:32;;;;;;;24.93;12.10;;;-0.10;99.90;;;;;;5114241;28;20106;-83
2022/01/13 05:19:24;;;;;;;23.50;11.27;;;-0.20;99.90;;;;;;5099438;28;20034;-83
2022/01/13 05:24:10;;;;;;;26.00;12.47;;;-0.20;99.90;;;;;;5118125;28;20119;-83
2022/01/13 05:26:35;;;;;;;21.97;12.07;;;-0.30;99.90;;;;;;5117885;28;20035;-82
2022/01/13 05:29:01;;;;;;;22.40;11.63;;;-0.20;99.90;;;;;;5118342;28;20024;-83
2022/01/13 05:31:27;;;;;;;23.83;11.97;;;-0.20;99.90;;;;;;5118017;28;20033;-83
2022/01/13 05:33:53;;;;;;;23.03;12.30;;;-0.30;99.90;;;;;;5100035;28;20023;-83
2022/01/13 05:36:19;;;;;;;20.73;10.77;;;-0.30;99.90;;;;;;5117589;28;20028;-83
2022/01/13 05:38:44;;;;;;;23.07;12.20;;;-0.30;99.90;;;;;;5099329;28;20472;-83
2022/01/13 05:41:10;;;;;;;21.73;11.17;;;-0.30;99.90;;;;;;5100001;28;20035;-82
2022/01/13 05:43:36;;;;;;;27.63;11.90;;;-0.30;99.90;;;;;;5099315;28;20070;-82
2022/01/13 05:46:05;;;;;;;23.10;12.13;;;-0.30;99.90;;;;;;5099959;28;20115;-83
2022/01/13 05:48:31;;;;;;;26.07;11.83;;;-0.40;99.90;;;;;;5099139;28;20477;-82
2022/01/13 05:50:58;;;;;;;30.23;12.77;;;-0.30;99.90;;;;;;5099935;28;20035;-83
2022/01/13 05:53:24;;;;;;;24.73;12.80;;;-0.30;99.90;;;;;;5099500;28;20434;-82
2022/01/13 05:55:49;;;;;;;25.20;12.30;;;-0.30;99.90;;;;;;5099323;28;20031;-82
2022/01/13 05:58:15;;;;;;;23.17;12.60;;;-0.30;99.90;;;;;;5099576;28;20023;-82
2022/01/13 06:00:41;;;;;;;29.50;12.43;;;-0.30;99.90;;;;;;5099201;28;20460;-82
2022/01/13 06:03:07;;;;;;;26.97;12.47;;;-0.30;99.90;;;;;;5099316;28;20024;-83
2022/01/13 06:05:35;;;;;;;23.73;12.57;;;-0.30;99.90;;;;;;5099048;28;20023;-82
2022/01/13 06:08:00;;;;;;;27.80;12.77;;;-0.40;99.90;;;;;;5100830;28;20031;-82
2022/01/13 06:10:26;;;;;;;23.33;11.53;;;-0.40;99.90;;;;;;5117094;28;20028;-82
2022/01/13 06:12:52;;;;;;;28.27;12.40;;;-0.40;99.90;;;;;;5098550;28;20028;-83
2022/01/13 06:15:21;;;;;;;26.17;12.50;;;-0.40;99.90;;;;;;5099036;28;20036;-82
2022/01/13 06:17:49;;;;;;;25.50;12.50;;;-0.40;99.90;;;;;;5116291;28;20027;-82
2022/01/13 06:20:15;;;;;;;24.10;12.47;;;-0.40;99.90;;;;;;5099207;28;20030;-82
2022/01/13 06:22:42;;;;;;;26.93;13.00;;;-0.30;99.90;;;;;;5098706;28;20024;-82
2022/01/13 06:25:09;;;;;;;28.93;13.20;;;-0.40;99.90;;;;;;5095573;28;20135;-83
2022/01/13 06:27:36;;;;;;;28.20;13.23;;;-0.40;99.90;;;;;;5095008;28;20077;-82
2022/01/13 06:30:04;;;;;;;28.03;13.07;;;-0.30;99.90;;;;;;5094733;28;20024;-83
2022/01/13 06:32:29;;;;;;;26.90;13.17;;;-0.40;99.90;;;;;;5095416;28;20026;-83
2022/01/13 06:34:55;;;;;;;26.83;12.53;;;-0.40;99.90;;;;;;5096003;28;20107;-83
2022/01/13 06:37:20;;;;;;;32.37;13.07;;;-0.40;99.90;;;;;;5096154;28;20024;-82
2022/01/13 06:39:46;;;;;;;35.67;14.67;;;-0.40;99.90;;;;;;5095161;28;20073;-82
2022/01/13 06:42:13;;;;;;;30.10;14.17;;;-0.40;99.90;;;;;;5095559;28;20530;-82
2022/01/13 06:44:39;;;;;;;26.07;12.87;;;-0.40;99.90;;;;;;5094936;28;20035;-83
2022/01/13 06:47:05;;;;;;;27.33;13.30;;;-0.40;99.90;;;;;;5096353;28;20461;-82
2022/01/13 06:49:31;;;;;;;31.70;13.40;;;-0.40;99.90;;;;;;5095387;28;20027;-83
2022/01/13 06:51:57;;;;;;;31.17;14.23;;;-0.40;99.90;;;;;;5094978;28;20024;-82
2022/01/13 06:54:23;;;;;;;30.93;13.70;;;-0.40;99.90;;;;;;5095018;28;20139;-83
2022/01/13 06:56:50;;;;;;;33.23;14.13;;;-0.40;99.90;;;;;;5094713;28;20516;-82
2022/01/13 06:59:16;;;;;;;30.87;14.50;;;-0.30;99.90;;;;;;5095900;28;20027;-83
2022/01/13 07:01:42;;;;;;;34.77;15.37;;;-0.30;99.90;;;;;;5095459;28;20020;-82
2022/01/13 07:04:12;;;;;;;32.73;16.07;;;-0.40;99.90;;;;;;5094959;28;20028;-83
2022/01/13 07:06:39;;;;;;;40.70;15.90;;;-0.30;99.90;;;;;;5094870;28;20165;-83
2022/01/13 07:09:07;;;;;;;34.67;14.97;;;-0.30;99.90;;;;;;5095036;28;20430;-82
2022/01/13 07:11:33;;;;;;;40.57;15.53;;;-0.20;99.90;;;;;;5094974;28;20028;-82
2022/01/13 07:13:59;;;;;;;37.70;14.57;;;-0.20;99.90;;;;;;5094640;28;20028;-82
2022/01/13 07:16:25;;;;;;;41.80;16.10;;;-0.20;99.90;;;;;;5094857;28;20024;-83
2022/01/13 07:18:51;;;;;;;39.07;16.47;;;-0.20;99.90;;;;;;5094197;28;20522;-82
2022/01/13 07:21:19;;;;;;;41.63;15.47;;;-0.20;99.90;;;;;;5094152;28;20028;-82
2022/01/13 07:23:44;;;;;;;39.67;15.53;;;-0.20;99.90;;;;;;5093900;28;20040;-83
2022/01/13 07:26:10;;;;;;;36.83;15.87;;;-0.20;99.90;;;;;;5093976;28;20070;-82
2022/01/13 07:28:36;;;;;;;34.80;15.13;;;-0.20;99.90;;;;;;5094120;28;20024;-82
2022/01/13 07:31:02;;;;;;;31.43;14.63;;;-0.20;99.90;;;;;;5094620;28;20035;-82
2022/01/13 07:33:28;;;;;;;31.83;14.67;;;-0.20;99.90;;;;;;5094613;28;20126;-82
2022/01/13 07:35:54;;;;;;;34.03;15.00;;;-0.20;99.90;;;;;;5093774;28;20024;-82
2022/01/13 07:38:20;;;;;;;35.40;15.17;;;-0.20;99.90;;;;;;5093795;28;20111;-82
2022/01/13 07:40:47;;;;;;;36.37;15.63;;;-0.30;99.90;;;;;;5093543;28;20032;-82
2022/01/13 07:43:13;;;;;;;29.07;14.20;;;-0.30;99.90;;;;;;5093864;28;20469;-83
2022/01/13 07:45:38;;;;;;;35.13;15.00;;;-0.30;99.90;;;;;;5093595;28;20035;-81
2022/01/13 07:48:05;;;;;;;30.00;13.33;;;-0.30;99.90;;;;;;5095012;28;20028;-83
2022/01/13 07:50:31;;;;;;;31.40;14.27;;;-0.20;99.90;;;;;;5094123;28;20473;-83
2022/01/13 07:52:56;;;;;;;30.17;14.57;;;-0.20;99.90;;;;;;5094870;28;20035;-83
2022/01/13 07:55:22;;;;;;;27.27;13.30;;;-0.20;99.90;;;;;;5094612;28;20031;-82
2022/01/13 07:57:48;;;;;;;27.90;13.70;;;-0.30;99.90;;;;;;5093480;28;20039;-83
2022/01/13 08:00:14;;;;;;;27.37;13.73;;;-0.20;99.90;;;;;;5093756;28;20031;-82
2022/01/13 08:02:41;;;;;;;26.63;13.10;;;-0.30;99.90;;;;;;5093302;28;20024;-82
2022/01/13 08:05:08;;;;;;;29.93;13.57;;;-0.30;99.90;;;;;;5093324;28;20059;-81
2022/01/13 08:07:33;;;;;;;30.73;13.60;;;-0.30;99.90;;;;;;5093764;28;20058;-81
2022/01/13 08:09:59;;;;;;;26.70;13.57;;;-0.30;99.90;;;;;;5093135;28;20431;-81
2022/01/13 08:12:25;;;;;;;32.10;14.40;;;-0.30;99.90;;;;;;5093536;28;20036;-82
2022/01/13 08:14:51;;;;;;;27.50;14.03;;;-0.30;99.90;;;;;;5092837;28;20032;-82
2022/01/13 08:20:03;;;;;;;30.47;14.43;;;-0.30;99.90;;;;;;5094223;28;20121;-83
2022/01/13 08:22:28;;;;;;;29.57;13.37;;;-0.20;99.90;;;;;;5093482;28;20028;-83
2022/01/13 08:24:54;;;;;;;30.50;14.50;;;-0.20;99.90;;;;;;5092449;28;20055;-83
2022/01/13 08:27:20;;;;;;;28.27;14.07;;;-0.20;99.90;;;;;;5093549;28;20032;-82
2022/01/13 08:29:45;;;;;;;29.93;13.43;;;-0.20;99.90;;;;;;5092844;28;20020;-82
2022/01/13 08:32:11;;;;;;;28.17;13.77;;;-0.10;99.90;;;;;;5093484;28;20081;-82
2022/01/13 08:34:36;;;;;;;25.00;13.87;;;-0.10;99.90;;;;;;5093168;28;20031;-82
2022/01/13 08:37:02;;;;;;;28.37;13.90;;;0.00;99.90;;;;;;5093750;28;20032;-82
2022/01/13 08:39:28;;;;;;;30.00;14.07;;;0.00;99.90;;;;;;5093081;28;20023;-82
2022/01/13 08:41:54;;;;;;;29.57;14.20;;;0.00;99.90;;;;;;5092560;28;20024;-83
2022/01/13 08:44:19;;;;;;;31.87;13.97;;;0.10;99.90;;;;;;5093566;28;20028;-82
2022/01/13 08:46:45;;;;;;;29.60;14.63;;;0.10;99.90;;;;;;5092533;28;20416;-82
2022/01/13 08:49:10;;;;;;;28.23;13.80;;;0.10;99.90;;;;;;5093449;28;20024;-82
2022/01/13 08:51:37;;;;;;;28.73;14.53;;;0.10;99.90;;;;;;5093425;28;20020;-82
2022/01/13 08:54:03;;;;;;;29.33;14.00;;;0.10;99.90;;;;;;5098596;28;20028;-82
2022/01/13 08:56:28;;;;;;;28.97;15.20;;;0.10;99.90;;;;;;5099857;28;20032;-82
2022/01/13 08:58:54;;;;;;;29.13;14.93;;;0.20;99.90;;;;;;5100326;28;20034;-82
2022/01/13 09:01:21;;;;;;;28.47;14.60;;;0.20;99.90;;;;;;5099629;28;20114;-83
2022/01/13 09:03:47;;;;;;;32.30;15.93;;;0.30;99.90;;;;;;5099158;28;20028;-82
2022/01/13 09:06:12;;;;;;;26.70;14.47;;;0.30;99.90;;;;;;5100910;28;20078;-82
2022/01/13 09:08:39;;;;;;;29.67;14.30;;;0.40;99.90;;;;;;5099631;28;20038;-82
2022/01/13 09:11:05;;;;;;;27.73;14.27;;;0.40;99.90;;;;;;5099601;28;20510;-81
2022/01/13 09:13:36;;;;;;;28.57;14.60;;;0.40;99.90;;;;;;5099710;28;20036;-82
2022/01/13 09:16:02;;;;;;;30.37;14.50;;;0.50;99.90;;;;;;5099259;28;20089;-81
2022/01/13 09:20:57;;;;;;;30.47;14.40;;;0.50;99.90;;;;;;5100295;28;20104;-83
2022/01/13 09:23:23;;;;;;;28.47;14.27;;;0.50;99.90;;;;;;5099623;28;20075;-81
2022/01/13 09:25:49;;;;;;;27.83;14.40;;;0.60;99.90;;;;;;5099250;28;20464;-80
2022/01/13 09:28:15;;;;;;;29.90;14.67;;;0.70;99.90;;;;;;5099658;28;20105;-80
2022/01/13 09:30:40;;;;;;;32.33;15.57;;;0.70;99.90;;;;;;5099534;28;20119;-81
2022/01/13 09:33:07;;;;;;;30.77;14.50;;;0.80;99.90;;;;;;5099139;28;20372;-81
2022/01/13 09:35:34;;;;;;;29.20;14.33;;;0.90;99.90;;;;;;5099597;28;20035;-81
2022/01/13 09:38:01;;;;;;;32.30;14.40;;;0.90;99.90;;;;;;5100245;28;20457;-81
2022/01/13 09:40:27;;;;;;;32.40;15.23;;;1.00;99.90;;;;;;5099721;28;20063;-81
2022/01/13 09:42:53;;;;;;;28.57;13.77;;;1.00;99.90;;;;;;5099267;28;20027;-81
2022/01/13 09:45:20;;;;;;;29.23;13.77;;;1.10;99.90;;;;;;5100397;28;20034;-82
2022/01/13 09:47:47;;;;;;;29.53;14.30;;;1.10;99.90;;;;;;5099868;28;20054;-80
2022/01/13 09:50:18;;;;;;;24.97;13.17;;;1.20;99.90;;;;;;5099745;28;20028;-80
2022/01/13 09:52:45;;;;;;;25.40;13.67;;;1.20;99.90;;;;;;5099962;28;20020;-83
2022/01/13 09:55:14;;;;;;;28.03;13.70;;;1.30;99.90;;;;;;5099412;28;20039;-83
2022/01/13 09:57:46;;;;;;;27.73;14.00;;;1.30;99.90;;;;;;5099542;28;20031;-83
2022/01/13 10:00:14;;;;;;;27.73;13.88;;;1.40;99.90;;;;;;5099397;28;20069;-84
2022/01/13 10:02:40;;;;;;;26.50;12.70;;;1.40;99.90;;;;;;5099237;28;20081;-83
2022/01/13 10:05:06;;;;;;;26.27;13.07;;;1.50;99.90;;;;;;5095672;28;20126;-83
2022/01/13 10:07:42;;;;;;;25.27;11.77;;;1.50;99.90;;;;;;5096229;28;20028;-83
2022/01/13 10:10:13;;;;;;;25.30;12.87;;;1.60;99.90;;;;;;5095592;28;20076;-83
2022/01/13 10:12:42;;;;;;;24.83;12.65;;;1.60;99.90;;;;;;5096172;28;20103;-84
2022/01/13 10:18:05;;;;;;;25.53;11.90;;;1.70;99.90;;;;;;5096591;28;20064;-83
2022/01/13 10:20:32;;;;;;;23.53;11.60;;;1.80;99.90;;;;;;5095794;28;20527;-83
2022/01/13 10:23:09;;;;;;;26.23;12.50;;;1.80;99.90;;;;;;5095265;28;20031;-83
2022/01/13 10:25:40;;;;;;;24.00;11.47;;;1.90;99.90;;;;;;5095424;28;20405;-85
2022/01/13 10:28:23;;;;;;;19.75;10.95;;;1.90;99.90;;;;;;5095251;28;20035;-84
2022/01/13 10:30:51;;;;;;;19.63;10.10;;;2.10;99.90;;;;;;5095867;28;20039;-82
2022/01/13 10:33:26;;;;;;;23.90;10.87;;;2.10;99.90;;;;;;5095471;28;20028;-82
2022/01/13 10:35:54;;;;;;;20.70;10.53;;;2.10;99.90;;;;;;5095004;28;20028;-82
2022/01/13 10:38:21;;;;;;;20.83;10.33;;;2.20;99.90;;;;;;5094898;28;20025;-83
2022/01/13 10:40:48;;;;;;;18.60;10.10;;;2.30;99.90;;;;;;5095390;28;20031;-83
2022/01/13 10:43:16;;;;;;;19.50;10.07;;;2.30;99.90;;;;;;5095547;28;20059;-83
2022/01/13 10:45:46;;;;;;;19.93;10.07;;;2.30;99.90;;;;;;5095053;28;20032;-83
2022/01/13 10:48:24;;;;;;;22.03;10.53;;;2.40;99.90;;;;;;5096550;28;20027;-83
2022/01/13 10:51:04;;;;;;;21.23;11.03;;;2.40;99.90;;;;;;5095149;28;20078;-83
2022/01/13 10:53:41;;;;;;;20.37;10.33;;;2.50;99.90;;;;;;5095234;28;20073;-82
2022/01/13 10:56:14;;;;;;;20.63;10.53;;;2.60;99.90;;;;;;5094585;28;20188;-82
2022/01/13 10:58:52;;;;;;;24.30;12.10;;;2.60;99.90;;;;;;5095144;28;20024;-82
2022/01/13 11:01:17;;;;;;;21.40;10.87;;;2.60;99.90;;;;;;5094935;28;20030;-83
2022/01/13 11:03:45;;;;;;;22.43;10.67;;;2.60;99.90;;;;;;5095862;28;20032;-83
2022/01/13 11:06:11;;;;;;;22.10;11.17;;;2.60;99.90;;;;;;5094589;28;20059;-83
2022/01/13 11:08:57;;;;;;;22.37;10.97;;;2.60;99.90;;;;;;5094896;28;20496;-83
2022/01/13 11:11:29;;;;;;;27.20;12.17;;;2.50;99.90;;;;;;5095184;28;20032;-83
2022/01/13 11:14:07;;;;;;;16.33;8.23;;;2.70;99.90;;;;;;5094591;28;20031;-83
2022/01/13 11:16:34;;;;;;;21.47;11.17;;;2.80;99.90;;;;;;5094261;28;20035;-83
2022/01/13 11:19:00;;;;;;;22.70;11.73;;;2.80;99.90;;;;;;5093907;28;20051;-84
2022/01/13 11:21:29;;;;;;;23.77;11.60;;;2.80;99.90;;;;;;5094601;28;20054;-82
2022/01/13 11:23:56;;;;;;;19.33;10.73;;;2.80;99.90;;;;;;5093929;28;20032;-83
2022/01/13 11:26:27;;;;;;;21.87;10.83;;;2.90;99.90;;;;;;5094542;28;20048;-82
2022/01/13 11:28:54;;;;;;;21.97;11.33;;;3.00;99.90;;;;;;5094047;28;20047;-82
2022/01/13 11:31:20;;;;;;;20.87;10.57;;;3.00;99.90;;;;;;5094395;28;20074;-82
2022/01/13 11:33:45;;;;;;;22.20;10.97;;;3.10;99.90;;;;;;5095186;28;20032;-80
2022/01/13 11:36:12;;;;;;;24.53;11.33;;;3.10;99.90;;;;;;5093903;28;20028;-83
2022/01/13 11:38:51;;;;;;;18.80;10.63;;;3.20;99.90;;;;;;5094399;28;20476;-83
2022/01/13 11:41:17;;;;;;;20.93;11.07;;;3.30;99.90;;;;;;5094347;28;20054;-82
2022/01/13 11:43:43;;;;;;;22.40;10.93;;;3.30;99.90;;;;;;5095086;28;20032;-82
2022/01/13 11:46:21;;;;;;;21.33;11.70;;;3.40;99.90;;;;;;5094421;28;20064;-82
2022/01/13 11:49:15;;;;;;;21.97;11.10;;;3.40;99.90;;;;;;5095125;28;20028;-82
2022/01/13 11:51:48;;;;;;;21.87;11.17;;;3.40;99.90;;;;;;5094088;28;20115;-82
2022/01/13 11:54:33;;;;;;;22.97;11.93;;;3.50;99.90;;;;;;5093273;28;20065;-82
2022/01/13 11:57:13;;;;;;;21.83;11.03;;;3.50;99.90;;;;;;5094265;28;20103;-84
2022/01/13 11:59:39;;;;;;;22.97;11.40;;;3.50;99.90;;;;;;5094195;28;20111;-84
2022/01/13 12:02:38;;;;;;;19.07;10.33;;;3.60;99.90;;;;;;5093627;28;20020;-84
2022/01/13 12:05:16;;;;;;;22.90;10.87;;;3.60;99.90;;;;;;5093405;28;20060;-83
2022/01/13 12:07:47;;;;;;;23.27;10.53;;;3.70;99.90;;;;;;5093505;28;20028;-80
2022/01/13 12:10:25;;;;;;;21.80;11.33;;;3.90;99.90;;;;;;5093216;28;20046;-81
2022/01/13 12:12:54;;;;;;;19.53;10.13;;;3.90;99.90;;;;;;5094600;28;20063;-81
2022/01/13 12:15:20;;;;;;;18.77;10.03;;;4.00;99.90;;;;;;5093614;28;20469;-83
2022/01/13 12:17:48;;;;;;;18.07;10.10;;;4.20;99.90;;;;;;5093339;28;20027;-82
2022/01/13 12:20:20;;;;;;;18.23;9.97;;;4.40;99.90;;;;;;5092869;28;20020;-82
2022/01/13 12:22:55;;;;;;;20.30;10.15;;;4.60;99.90;;;;;;5093259;28;20060;-83
2022/01/13 12:25:31;;;;;;;18.13;9.47;;;4.70;99.90;;;;;;5093382;28;20048;-82
2022/01/13 12:27:58;;;;;;;15.33;8.97;;;5.00;99.90;;;;;;5092071;28;20036;-82
2022/01/13 12:30:30;;;;;;;17.30;9.13;;;5.20;99.90;;;;;;5093497;28;20028;-83
2022/01/13 12:33:01;;;;;;;18.13;10.07;;;5.40;99.90;;;;;;5093974;28;20016;-82
2022/01/13 12:35:32;;;;;;;17.95;9.30;;;5.60;99.90;;;;;;5093398;28;20036;-84
2022/01/13 12:38:05;;;;;;;17.90;9.88;;;5.80;99.90;;;;;;5092726;28;20089;-83
2022/01/13 12:40:41;;;;;;;17.77;10.03;;;5.90;99.30;;;;;;5093222;28;20120;-84
2022/01/13 12:46:12;;;;;;;16.93;8.93;;;6.00;99.10;;;;;;5093763;28;20040;-85
2022/01/13 12:48:42;;;;;;;15.13;8.77;;;6.00;99.10;;;;;;5093336;28;20028;-85
2022/01/13 12:51:13;;;;;;;16.53;8.73;;;6.00;99.20;;;;;;5093822;28;20021;-84
2022/01/13 12:53:39;;;;;;;15.93;8.68;;;5.90;98.90;;;;;;5092791;28;20040;-83
2022/01/13 12:56:26;;;;;;;14.83;8.83;;;6.00;98.90;;;;;;5092659;28;20071;-84
2022/01/13 12:58:54;;;;;;;17.93;9.93;;;6.00;98.40;;;;;;5093264;28;20027;-83
2022/01/13 13:01:22;;;;;;;17.63;8.93;;;6.10;98.40;;;;;;5094057;28;20024;-83
2022/01/13 13:04:03;;;;;;;17.80;9.43;;;6.10;98.80;;;;;;5093230;28;20062;-84
2022/01/13 13:06:31;;;;;;;16.70;8.43;;;6.20;98.90;;;;;;5093968;28;20085;-84
2022/01/13 13:09:09;;;;;;;17.20;8.90;;;6.20;98.80;;;;;;5092427;28;20058;-84